Time;durP1;ratioP1;P1;durP2;ratioP2;P2;SDS_P1;SDS_P2;PMS_P1;PMS_P2;Temp;Humidity;BMP_temperature;BMP_pressure;BME280_temperature;BME280_humidity;BME280_pressure;Samples;Min_cycle;Max_cycle;Signal;HPM_P1;HPM_P2
2023/07/25 00:00:05;;;;;;;10.93;8.37;;;;;;;19.10;100.00;99927.97;5055694;28;20281;-58
2023/07/25 00:02:35;;;;;;;9.67;8.00;;;;;;;19.12;100.00;99932.22;5083526;28;20324;-60
2023/07/25 00:05:07;;;;;;;11.17;8.00;;;;;;;19.19;100.00;99927.41;5075280;28;20285;-60
2023/07/25 00:07:39;;;;;;;11.97;8.83;;;;;;;19.22;100.00;99935.22;5078285;28;20282;-59
2023/07/25 00:10:10;;;;;;;12.67;9.70;;;;;;;19.29;100.00;99939.19;5055142;28;20297;-60
2023/07/25 00:12:43;;;;;;;14.27;9.70;;;;;;;19.35;100.00;99938.84;5065144;28;20306;-60
2023/07/25 00:15:13;;;;;;;14.90;9.17;;;;;;;19.35;100.00;99938.84;5072867;28;20278;-59
2023/07/25 00:17:44;;;;;;;12.23;8.97;;;;;;;19.43;100.00;99940.19;5071589;28;20278;-59
2023/07/25 00:20:15;;;;;;;11.93;8.43;;;;;;;19.45;100.00;99943.63;5081332;28;20353;-60
2023/07/25 00:22:45;;;;;;;14.17;8.40;;;;;;;19.17;100.00;99889.59;5061242;28;20789;-59
2023/07/25 00:25:16;;;;;;;12.00;7.90;;;;;;;19.51;100.00;99935.31;5073601;28;20281;-58
2023/07/25 00:27:49;;;;;;;10.87;7.37;;;;;;;19.48;100.00;99922.25;5075033;28;20285;-57
2023/07/25 00:30:19;;;;;;;16.83;7.73;;;;;;;19.60;100.00;99932.13;5085688;28;20290;-60
2023/07/25 00:32:50;;;;;;;10.83;7.07;;;;;;;19.59;100.00;99935.69;5074762;28;20402;-59
2023/07/25 00:35:20;;;;;;;12.70;7.10;;;;;;;19.33;100.00;99882.44;5085441;28;20709;-60
2023/07/25 00:37:51;;;;;;;11.53;6.77;;;;;;;19.60;100.00;99924.16;5075300;28;20325;-59
2023/07/25 00:40:21;;;;;;;9.67;7.13;;;;;;;19.73;100.00;99922.50;5085439;28;20277;-57
2023/07/25 00:42:57;;;;;;;10.43;7.30;;;;;;;19.79;100.00;99914.22;5074821;28;20659;-58
2023/07/25 00:45:28;;;;;;;13.40;6.73;;;;;;;19.96;100.00;99922.94;5085673;28;20398;-58
2023/07/25 00:47:59;;;;;;;9.90;6.40;;;;;;;20.08;100.00;99922.19;5074759;28;20289;-59
2023/07/25 00:50:30;;;;;;;9.47;6.97;;;;;;;20.21;100.00;99923.13;5085225;28;20668;-60
2023/07/25 00:53:03;;;;;;;10.40;7.17;;;;;;;20.34;100.00;99925.03;5074611;28;20653;-59
2023/07/25 00:55:34;;;;;;;17.47;7.40;;;;;;;20.36;100.00;99915.16;5084996;28;20381;-59
2023/07/25 00:58:07;;;;;;;12.13;6.73;;;;;;;20.41;100.00;99924.53;5073820;28;20285;-58
2023/07/25 01:00:39;;;;;;;14.33;6.77;;;;;;;20.44;100.00;99928.81;5084846;28;20348;-60
2023/07/25 01:03:10;;;;;;;11.03;6.87;;;;;;;20.48;100.00;99925.88;5066285;28;20312;-55
2023/07/25 01:05:44;;;;;;;15.33;7.33;;;;;;;20.43;100.00;99925.31;5072251;28;20277;-60
2023/07/25 01:08:14;;;;;;;11.67;6.70;;;;;;;20.38;100.00;99935.34;5074835;28;20435;-60
2023/07/25 01:10:45;;;;;;;13.77;8.50;;;;;;;20.39;100.00;99937.06;5071957;28;20353;-58
2023/07/25 01:13:17;;;;;;;14.37;8.03;;;;;;;20.45;100.00;99919.91;5084005;28;20274;-57
2023/07/25 01:15:48;;;;;;;14.13;7.67;;;;;;;20.52;100.00;99928.31;5074801;28;20282;-61
2023/07/25 01:18:19;;;;;;;13.07;7.73;;;;;;;20.38;100.00;99897.34;5084906;28;20278;-61
2023/07/25 01:20:50;;;;;;;15.90;8.20;;;;;;;20.58;100.00;99910.25;5074521;28;20284;-60
2023/07/25 01:23:22;;;;;;;20.07;8.10;;;;;;;20.62;100.00;99881.72;5084725;28;20634;-59
2023/07/25 01:26:03;;;;;;;16.77;8.13;;;;;;;20.90;100.00;99928.59;5075308;28;20600;-60
2023/07/25 01:28:33;;;;;;;18.23;8.77;;;;;;;20.98;100.00;99928.94;5069689;28;20337;-58
2023/07/25 01:31:04;;;;;;;18.87;8.93;;;;;;;21.07;100.00;99922.19;5059964;28;20359;-61
2023/07/25 01:33:35;;;;;;;15.50;7.73;;;;;;;21.07;100.00;99920.38;5069387;28;20282;-60
2023/07/25 01:36:06;;;;;;;16.03;7.43;;;;;;;21.14;100.00;99930.56;5060583;28;20286;-60
2023/07/25 01:38:37;;;;;;;16.23;7.63;;;;;;;21.20;100.00;99919.56;5070640;28;20720;-61
2023/07/25 01:41:09;;;;;;;15.07;7.70;;;;;;;21.35;100.00;99929.16;5068597;28;20290;-58
2023/07/25 01:43:39;;;;;;;15.40;7.83;;;;;;;21.37;100.00;99932.59;5078373;28;20365;-58
2023/07/25 01:46:10;;;;;;;16.27;7.80;;;;;;;21.37;100.00;99937.91;5077512;28;20309;-59
2023/07/25 01:48:40;;;;;;;15.83;8.03;;;;;;;21.45;100.00;99942.72;5093174;28;20285;-59
2023/07/25 01:51:11;;;;;;;16.60;8.57;;;;;;;21.53;100.00;99935.94;5093420;28;20649;-58
2023/07/25 01:53:41;;;;;;;18.27;8.07;;;;;;;21.68;100.00;99928.72;5114123;28;20277;-58
2023/07/25 01:56:13;;;;;;;17.50;8.07;;;;;;;21.80;100.00;99937.69;5114206;28;20295;-57
2023/07/25 01:58:44;;;;;;;20.60;8.57;;;;;;;21.87;100.00;99938.97;5074736;28;20146;-56
2023/07/25 02:01:17;;;;;;;17.03;8.33;;;;;;;21.96;100.00;99933.00;5084513;28;20104;-55
2023/07/25 02:03:48;;;;;;;18.40;8.37;;;;;;;22.22;100.00;99921.56;5073672;28;20043;-56
2023/07/25 02:06:18;;;;;;;18.53;8.90;;;;;;;22.39;100.00;99924.75;5084198;28;20070;-58
2023/07/25 02:08:49;;;;;;;22.13;8.43;;;;;;;22.34;100.00;99918.88;5073532;28;20119;-59
2023/07/25 02:11:21;;;;;;;14.83;7.40;;;;;;;22.31;100.00;99935.06;5083967;28;20042;-56
2023/07/25 02:13:51;;;;;;;18.33;7.97;;;;;;;22.36;100.00;99930.25;5066972;28;20121;-57
2023/07/25 02:16:22;;;;;;;15.20;7.70;;;;;;;22.38;100.00;99931.00;5063828;28;20109;-56
2023/07/25 02:18:52;;;;;;;15.53;7.00;;;;;;;22.29;100.00;99923.69;5072259;28;20580;-57
2023/07/25 02:21:23;;;;;;;17.17;8.37;;;;;;;22.24;100.00;99914.31;5088041;28;20057;-57
2023/07/25 02:23:53;;;;;;;18.87;8.40;;;;;;;22.30;100.00;99920.06;5077294;28;20047;-57
2023/07/25 02:26:25;;;;;;;21.93;9.03;;;;;;;22.23;100.00;99881.53;5087988;28;20052;-57
2023/07/25 02:28:56;;;;;;;22.53;8.20;;;;;;;22.64;100.00;99920.31;5078042;28;20047;-59
2023/07/25 02:31:27;;;;;;;17.80;8.90;;;;;;;22.82;100.00;99921.63;5087765;28;20564;-57
2023/07/25 02:33:58;;;;;;;16.73;8.43;;;;;;;22.75;100.00;99920.38;5077334;28;20062;-56
2023/07/25 02:36:29;;;;;;;18.10;8.57;;;;;;;22.78;100.00;99914.81;5087771;28;20046;-59
2023/07/25 02:38:59;;;;;;;20.73;8.80;;;;;;;22.85;100.00;99919.72;5077596;28;20044;-58
2023/07/25 02:41:31;;;;;;;20.03;8.93;;;;;;;22.88;100.00;99916.81;5087993;28;20130;-57
2023/07/25 02:44:02;;;;;;;20.50;9.00;;;;;;;22.95;100.00;99904.75;5077425;28;20041;-58
2023/07/25 02:46:33;;;;;;;15.23;7.93;;;;;;;22.94;100.00;99871.94;5087427;28;20150;-57
2023/07/25 02:49:04;;;;;;;17.53;8.10;;;;;;;23.18;100.00;99911.91;5064260;28;20052;-57
2023/07/25 02:51:34;;;;;;;22.30;8.60;;;;;;;23.09;100.00;99917.97;5075320;28;20052;-58
2023/07/25 02:54:04;;;;;;;18.43;9.03;;;;;;;23.07;100.00;99919.88;5076682;28;20085;-57
2023/07/25 02:56:37;;;;;;;19.53;8.80;;;;;;;23.03;100.00;99924.56;5087170;28;20040;-56
2023/07/25 02:59:07;;;;;;;15.57;8.53;;;;;;;23.19;100.00;99916.31;5076607;28;20147;-55
2023/07/25 03:01:38;;;;;;;22.60;8.40;;;;;;;23.20;100.00;99923.31;5087625;28;20130;-56
2023/07/25 03:04:08;;;;;;;16.40;8.47;;;;;;;22.94;100.00;99881.72;5076017;28;20070;-56
2023/07/25 03:06:39;;;;;;;16.57;8.07;;;;;;;23.14;100.00;99915.81;5087108;28;20131;-58
2023/07/25 03:09:09;;;;;;;21.50;8.87;;;;;;;23.18;100.00;99911.06;5076825;28;20167;-57
2023/07/25 03:11:41;;;;;;;18.20;7.20;;;;;;;23.18;100.00;99911.06;5086072;28;20039;-58
2023/07/25 03:14:12;;;;;;;12.27;7.50;;;;;;;23.36;100.00;99914.19;5075163;28;20056;-57
2023/07/25 03:16:43;;;;;;;13.60;7.77;;;;;;;23.41;100.00;99912.00;5080142;28;20047;-57
2023/07/25 03:19:13;;;;;;;18.33;8.70;;;;;;;23.46;99.73;99912.50;5086434;28;20059;-56
2023/07/25 03:21:44;;;;;;;17.83;8.70;;;;;;;23.44;100.00;99917.13;5075642;28;20152;-58
2023/07/25 03:24:14;;;;;;;20.47;8.67;;;;;;;23.41;100.00;99906.69;5086417;28;20047;-55
2023/07/25 03:26:46;;;;;;;13.73;7.17;;;;;;;23.27;99.76;99888.22;5075877;28;20129;-57
2023/07/25 03:29:17;;;;;;;12.30;6.67;;;;;;;23.36;100.00;99900.84;5085765;28;20073;-57
2023/07/25 03:31:47;;;;;;;16.43;7.37;;;;;;;23.52;100.00;99888.06;5076471;28;20063;-56
2023/07/25 03:34:18;;;;;;;17.83;8.53;;;;;;;23.69;98.81;99895.63;5085863;28;20067;-58
2023/07/25 03:36:48;;;;;;;15.17;8.07;;;;;;;23.52;98.61;99858.72;5074969;28;20476;-56
2023/07/25 03:39:19;;;;;;;17.77;7.70;;;;;;;23.76;98.74;99893.34;5085653;28;20056;-56
2023/07/25 03:41:51;;;;;;;13.83;7.67;;;;;;;23.83;97.95;99888.41;5074542;28;20054;-56
2023/07/25 03:44:22;;;;;;;15.33;7.30;;;;;;;23.86;96.87;99886.34;5085383;28;20040;-57
2023/07/25 03:46:52;;;;;;;17.00;7.83;;;;;;;23.85;96.87;99883.78;5074752;28;20058;-56
2023/07/25 03:49:23;;;;;;;19.30;7.80;;;;;;;23.47;97.69;99826.25;5085514;28;20042;-59
2023/07/25 03:51:53;;;;;;;20.37;7.67;;;;;;;23.78;98.21;99877.22;5075022;28;20039;-58
2023/07/25 03:54:25;;;;;;;16.73;7.43;;;;;;;23.76;98.09;99881.84;5085805;28;20051;-57
2023/07/25 03:56:57;;;;;;;14.53;7.63;;;;;;;23.86;99.37;99886.34;5075006;28;20359;-55
2023/07/25 03:59:28;;;;;;;18.17;7.27;;;;;;;23.89;98.18;99885.28;5085408;28;20136;-56
2023/07/25 04:01:58;;;;;;;15.83;7.73;;;;;;;23.88;97.72;99883.56;5075555;28;20075;-56
2023/07/25 04:04:29;;;;;;;14.13;7.20;;;;;;;23.76;99.20;99855.16;5085721;28;20062;-58
2023/07/25 04:07:00;;;;;;;14.53;7.77;;;;;;;23.93;98.68;99875.19;5074631;28;20062;-55
2023/07/25 04:09:30;;;;;;;14.07;6.90;;;;;;;23.94;97.67;99883.09;5085044;28;20124;-56
2023/07/25 04:12:03;;;;;;;14.97;7.80;;;;;;;23.84;97.23;99890.13;5011334;28;1809854;-57
2023/07/25 04:14:33;;;;;;;13.33;7.00;;;;;;;23.93;98.21;99884.03;5085845;28;20096;-57
2023/07/25 04:17:04;;;;;;;12.20;6.57;;;;;;;23.97;97.80;99887.34;5075949;28;20071;-56
2023/07/25 04:19:34;;;;;;;14.80;7.70;;;;;;;24.11;96.52;99887.06;5086548;28;20044;-56
2023/07/25 04:22:06;;;;;;;14.90;7.30;;;;;;;24.05;96.90;99893.75;5075403;28;20397;-58
2023/07/25 04:24:36;;;;;;;9.77;6.83;;;;;;;24.03;97.51;99893.03;5085312;28;20036;-61
2023/07/25 04:27:09;;;;;;;13.40;6.47;;;;;;;23.91;96.97;99893.97;5074889;28;20677;-55
2023/07/25 04:29:39;;;;;;;15.37;6.40;;;;;;;23.73;97.89;99890.91;5085547;28;20130;-56
2023/07/25 04:32:10;;;;;;;10.37;6.90;;;;;;;23.49;98.95;99888.31;5074703;28;20058;-57
2023/07/25 04:34:41;;;;;;;9.93;6.77;;;;;;;23.51;99.92;99896.16;5086049;28;20134;-56
2023/07/25 04:37:12;;;;;;;12.60;6.30;;;;;;;23.28;100.00;99890.75;5075032;28;20044;-58
2023/07/25 04:39:42;;;;;;;13.87;7.43;;;;;;;23.25;100.00;99901.66;5081703;28;20079;-57
2023/07/25 04:42:14;;;;;;;10.23;7.00;;;;;;;23.05;100.00;99884.50;5084545;28;20136;-56
2023/07/25 04:44:46;;;;;;;9.70;6.67;;;;;;;22.95;100.00;99899.44;5061304;28;20046;-56
2023/07/25 04:47:16;;;;;;;12.50;7.40;;;;;;;22.94;100.00;99897.72;5065435;28;20121;-58
2023/07/25 04:49:47;;;;;;;11.70;7.70;;;;;;;22.88;100.00;99903.50;5073873;28;20138;-57
2023/07/25 04:52:17;;;;;;;10.90;6.90;;;;;;;22.87;100.00;99902.66;5086118;28;20150;-57
2023/07/25 04:54:49;;;;;;;14.73;7.03;;;;;;;22.83;100.00;99902.03;5074284;28;20178;-57
2023/07/25 04:57:21;;;;;;;12.00;7.27;;;;;;;22.75;100.00;99909.72;5084785;28;20054;-56
2023/07/25 04:59:52;;;;;;;11.73;7.13;;;;;;;22.65;100.00;99895.38;5074715;28;20455;-57
2023/07/25 05:02:24;;;;;;;13.57;7.33;;;;;;;22.81;100.00;99908.41;5084980;28;20079;-57
2023/07/25 05:04:54;;;;;;;11.67;6.60;;;;;;;22.52;100.00;99870.63;5074896;28;20526;-56
2023/07/25 05:07:25;;;;;;;35.97;19.67;;;;;;;22.68;100.00;99911.13;5084850;28;20139;-55
2023/07/25 05:09:55;;;;;;;13.60;8.70;;;;;;;22.62;100.00;99906.25;5073920;28;20340;-58
2023/07/25 05:12:27;;;;;;;14.23;6.80;;;;;;;22.59;100.00;99904.69;5084527;28;20036;-56
2023/07/25 05:14:58;;;;;;;12.10;5.60;;;;;;;22.58;100.00;99907.44;5058212;28;20131;-55
2023/07/25 05:17:28;;;;;;;15.67;5.27;;;;;;;22.59;100.00;99909.16;5064778;28;20532;-56
2023/07/25 05:19:59;;;;;;;8.60;5.37;;;;;;;22.65;100.00;99908.69;5055229;28;20059;-56
2023/07/25 05:22:29;;;;;;;10.27;6.07;;;;;;;22.81;100.00;99911.97;5065372;28;20051;-56
2023/07/25 05:25:00;;;;;;;7.60;5.20;;;;;;;22.87;100.00;99913.31;5054951;28;20143;-58
2023/07/25 05:27:32;;;;;;;18.50;5.17;;;;;;;23.01;100.00;99909.66;5064972;28;20525;-56
2023/07/25 05:30:02;;;;;;;9.80;5.17;;;;;;;23.28;100.00;99900.59;5054563;28;20140;-59
2023/07/25 05:32:33;;;;;;;5.77;4.57;;;;;;;23.36;98.19;99903.50;5064397;28;20047;-56
2023/07/25 05:35:07;;;;;;;7.90;5.27;;;;;;;23.51;98.16;99899.69;5072513;28;20039;-58
2023/07/25 05:37:38;;;;;;;9.97;5.70;;;;;;;23.65;97.48;99883.47;5084871;28;20154;-57
2023/07/25 05:40:10;;;;;;;11.70;6.20;;;;;;;24.01;96.22;99894.97;5066617;28;20078;-57
2023/07/25 05:42:42;;;;;;;9.33;5.57;;;;;;;24.38;95.85;99897.38;5064182;28;20111;-58
2023/07/25 05:45:13;;;;;;;8.83;6.17;;;;;;;24.61;95.94;99881.38;5065625;28;20053;-55
2023/07/25 05:47:43;;;;;;;10.13;5.47;;;;;;;24.89;94.57;99886.16;5074282;28;20047;-58
2023/07/25 05:50:14;;;;;;;10.50;5.83;;;;;;;25.05;91.92;99891.09;5084596;28;20043;-57
2023/07/25 05:52:45;;;;;;;11.90;5.93;;;;;;;25.03;90.65;99892.19;5074170;28;20048;-56
2023/07/25 05:55:15;;;;;;;11.50;6.37;;;;;;;24.73;91.27;99864.34;5084527;28;20181;-58
2023/07/25 05:57:48;;;;;;;9.43;5.37;;;;;;;24.78;93.07;99896.88;5074103;28;20070;-57
2023/07/25 06:00:19;;;;;;;10.40;5.57;;;;;;;24.71;92.04;99909.03;5084315;28;20051;-56
2023/07/25 06:02:51;;;;;;;8.80;5.27;;;;;;;24.62;93.54;99867.06;5073538;28;20051;-56
2023/07/25 06:05:21;;;;;;;9.20;5.53;;;;;;;24.79;90.55;99911.94;5084178;28;20470;-55
2023/07/25 06:07:52;;;;;;;13.87;5.60;;;;;;;24.59;91.73;99873.50;5074367;28;20131;-56
2023/07/25 06:10:22;;;;;;;12.33;5.83;;;;;;;24.56;91.49;99904.94;5084193;28;20039;-57
2023/07/25 06:12:55;;;;;;;11.53;5.33;;;;;;;24.61;92.08;99908.09;5073310;28;20886;-56
2023/07/25 06:15:28;;;;;;;10.43;5.40;;;;;;;24.70;93.09;99907.34;5063809;28;20144;-56
2023/07/25 06:17:58;;;;;;;15.03;5.60;;;;;;;24.79;93.12;99909.28;5053073;28;20052;-56
2023/07/25 06:20:29;;;;;;;10.20;5.27;;;;;;;24.94;91.75;99894.66;5063483;28;20151;-56
2023/07/25 06:23:00;;;;;;;8.27;5.30;;;;;;;24.92;90.84;99901.94;5053504;28;20247;-57
2023/07/25 06:25:30;;;;;;;9.33;5.67;;;;;;;24.82;90.04;99892.16;5063407;28;20471;-56
2023/07/25 06:28:04;;;;;;;9.63;4.90;;;;;;;24.80;92.19;99881.56;5052394;28;20063;-55
2023/07/25 06:30:35;;;;;;;12.67;5.77;;;;;;;24.86;90.17;99897.13;5081941;28;20067;-56
2023/07/25 06:33:06;;;;;;;13.03;5.73;;;;;;;24.80;90.81;99889.59;5073439;28;20032;-58
2023/07/25 06:35:37;;;;;;;7.50;5.40;;;;;;;24.83;91.02;99875.97;5083323;28;20773;-56
2023/07/25 06:38:07;;;;;;;15.60;6.03;;;;;;;24.73;90.91;99880.38;5072979;28;20059;-57
2023/07/25 06:40:38;;;;;;;11.60;5.97;;;;;;;24.87;92.02;99890.78;5084514;28;20044;-57
2023/07/25 06:43:10;;;;;;;10.67;5.43;;;;;;;24.92;90.16;99891.25;5073010;28;20057;-57
2023/07/25 06:45:40;;;;;;;13.67;5.67;;;;;;;24.92;90.39;99901.94;5083665;28;20052;-56
2023/07/25 06:48:11;;;;;;;9.03;5.60;;;;;;;24.96;89.91;99897.19;5072896;28;20130;-58
2023/07/25 06:50:41;;;;;;;11.33;5.63;;;;;;;24.93;89.89;99900.97;5083743;28;20380;-58
2023/07/25 06:53:12;;;;;;;9.67;6.07;;;;;;;24.87;89.71;99898.81;5073188;28;20112;-58
2023/07/25 06:55:43;;;;;;;12.00;5.30;;;;;;;24.92;89.63;99896.59;5077164;28;20059;-59
2023/07/25 06:58:15;;;;;;;8.80;5.27;;;;;;;24.91;90.50;99894.03;5083687;28;20435;-57
2023/07/25 07:00:47;;;;;;;7.20;5.37;;;;;;;25.01;90.37;99894.13;5072956;28;20055;-58
2023/07/25 07:03:18;;;;;;;20.60;6.50;;;;;;;25.05;90.48;99882.22;5083586;28;20055;-57
2023/07/25 07:05:55;;;;;;;14.77;5.70;;;;;;;25.15;90.02;99880.50;5076044;28;20052;-56
2023/07/25 07:08:25;;;;;;;10.80;4.97;;;;;;;25.08;89.81;99858.75;5087182;28;20494;-56
2023/07/25 07:10:56;;;;;;;10.53;4.87;;;;;;;25.25;88.75;99860.06;5076711;28;20047;-56
2023/07/25 07:13:29;;;;;;;10.87;4.20;;;;;;;25.33;89.78;99873.63;5083669;28;20048;-57
2023/07/25 07:15:59;;;;;;;22.60;5.10;;;;;;;25.15;87.99;99865.28;5055935;28;20052;-55
2023/07/25 07:18:33;;;;;;;8.30;4.60;;;;;;;25.15;89.76;99867.13;5066762;28;20051;-56
2023/07/25 07:21:04;;;;;;;8.37;4.50;;;;;;;25.26;90.17;99867.13;5055811;28;20058;-57
2023/07/25 07:23:34;;;;;;;9.53;4.80;;;;;;;25.32;88.88;99860.41;5066479;28;20044;-56
2023/07/25 07:26:05;;;;;;;9.43;4.27;;;;;;;25.40;88.40;99864.09;5075789;28;20138;-58
2023/07/25 07:28:37;;;;;;;8.57;4.53;;;;;;;25.31;87.61;99864.91;5087387;28;20104;-57
2023/07/25 07:31:08;;;;;;;9.10;4.60;;;;;;;25.34;89.26;99869.97;5076093;28;20061;-58
2023/07/25 07:33:39;;;;;;;7.23;4.30;;;;;;;25.27;88.06;99866.13;5086192;28;20058;-57
2023/07/25 07:36:10;;;;;;;10.20;4.20;;;;;;;25.32;88.84;99866.59;5075886;28;20059;-59
2023/07/25 07:38:40;;;;;;;11.33;4.57;;;;;;;25.36;88.78;99852.00;5086301;28;20049;-57
2023/07/25 07:41:11;;;;;;;5.57;4.43;;;;;;;25.27;88.47;99863.44;5075711;28;20058;-58
2023/07/25 07:43:43;;;;;;;7.43;4.27;;;;;;;25.14;88.81;99857.41;5091281;28;20052;-58
2023/07/25 07:46:13;;;;;;;7.33;3.80;;;;;;;24.93;88.73;99823.47;5073925;28;20688;-59
2023/07/25 07:48:45;;;;;;;6.03;3.93;;;;;;;25.13;88.62;99856.53;5058697;28;20062;-59
2023/07/25 07:51:16;;;;;;;7.13;4.10;;;;;;;25.22;89.07;99854.97;5071213;28;20043;-59
2023/07/25 07:53:46;;;;;;;7.13;3.67;;;;;;;25.24;88.34;99863.72;5063034;28;20065;-60
2023/07/25 07:56:17;;;;;;;6.70;4.37;;;;;;;25.30;88.23;99873.03;5072713;28;20506;-60
2023/07/25 07:58:49;;;;;;;6.27;4.10;;;;;;;25.25;88.14;99873.41;5062224;28;20042;-58
2023/07/25 08:01:22;;;;;;;10.60;4.30;;;;;;;25.21;88.53;99877.34;5073009;28;20054;-56
2023/07/25 08:03:52;;;;;;;16.53;4.10;;;;;;;25.26;89.03;99885.84;5061099;28;20051;-60
2023/07/25 08:06:23;;;;;;;8.60;4.30;;;;;;;25.31;89.51;99880.06;5072779;28;20134;-59
2023/07/25 08:08:53;;;;;;;10.17;4.20;;;;;;;25.22;88.10;99881.72;5060756;28;20524;-60
2023/07/25 08:11:24;;;;;;;6.20;4.33;;;;;;;25.08;88.21;99873.94;5070661;28;20416;-62
2023/07/25 08:13:57;;;;;;;8.03;4.60;;;;;;;25.05;88.41;99879.56;5061696;28;20122;-60
2023/07/25 08:16:27;;;;;;;11.67;4.30;;;;;;;24.98;89.32;99900.59;5071398;28;20134;-57
2023/07/25 08:18:58;;;;;;;6.27;4.10;;;;;;;25.02;89.95;99890.50;5060857;28;20155;-59
2023/07/25 08:21:28;;;;;;;10.27;5.33;;;;;;;25.02;90.63;99899.38;5071586;28;20127;-59
2023/07/25 08:24:03;;;;;;;10.97;4.67;;;;;;;25.08;90.97;99898.00;5059382;28;20065;-60
2023/07/25 08:26:34;;;;;;;7.97;4.67;;;;;;;25.07;90.46;99905.19;5070709;28;20046;-57
2023/07/25 08:29:06;;;;;;;10.57;4.43;;;;;;;25.05;90.00;99900.94;5059933;28;20462;-59
2023/07/25 08:31:38;;;;;;;8.93;4.00;;;;;;;25.04;90.14;99901.94;5071161;28;20071;-59
2023/07/25 08:34:08;;;;;;;5.13;3.60;;;;;;;25.02;89.93;99903.88;5060664;28;20048;-58
2023/07/25 08:36:39;;;;;;;6.47;4.00;;;;;;;25.04;89.50;99905.44;5072030;28;20127;-60
2023/07/25 08:39:09;;;;;;;7.60;4.17;;;;;;;24.98;89.09;99906.78;5060844;28;20738;-59
2023/07/25 08:41:48;;;;;;;5.53;4.00;;;;;;;24.94;89.43;99892.00;5071124;28;20044;-59
2023/07/25 08:44:22;;;;;;;10.15;4.28;;;;;;;24.91;88.89;99905.59;5059709;28;20046;-60
2023/07/25 08:46:53;;;;;;;12.37;4.90;;;;;;;24.93;89.35;99903.63;5061285;28;20131;-59
2023/07/25 08:49:25;;;;;;;6.43;4.10;;;;;;;24.95;88.93;99908.88;5070737;28;20054;-59
2023/07/25 08:51:58;;;;;;;7.97;4.37;;;;;;;24.80;89.48;99913.63;5059704;28;20069;-59
2023/07/25 08:54:32;;;;;;;7.00;4.40;;;;;;;24.52;90.59;99915.88;5072440;28;20049;-60
2023/07/25 08:57:03;;;;;;;9.73;3.97;;;;;;;24.24;91.97;99921.69;5060556;28;20057;-60
2023/07/25 08:59:35;;;;;;;10.33;4.50;;;;;;;23.98;93.17;99921.88;5070098;28;20048;-59
2023/07/25 09:02:10;;;;;;;9.87;4.47;;;;;;;23.77;94.62;99934.25;5059832;28;20155;-59
2023/07/25 09:04:41;;;;;;;8.23;4.20;;;;;;;23.58;96.13;99938.25;5070558;28;20043;-59
2023/07/25 09:07:12;;;;;;;7.60;4.17;;;;;;;23.39;96.92;99940.63;5059018;28;20366;-59
2023/07/25 09:10:00;;;;;;;4.53;3.30;;;;;;;22.85;98.00;99872.63;5067191;28;20064;-59
2023/07/25 09:13:14;;;;;;;6.80;3.70;;;;;;;23.10;98.77;99918.81;5059272;28;20047;-57
2023/07/25 09:15:48;;;;;;;4.00;2.90;;;;;;;23.00;98.40;99945.28;5059946;28;20083;-60
2023/07/25 09:18:20;;;;;;;6.23;3.10;;;;;;;22.83;99.08;99936.66;5070290;28;20056;-59
2023/07/25 09:20:51;;;;;;;7.53;3.50;;;;;;;22.74;99.87;99939.13;5059323;28;20046;-59
2023/07/25 09:23:22;;;;;;;6.50;3.23;;;;;;;22.46;100.00;99914.47;5070325;28;20442;-60
2023/07/25 09:26:04;;;;;;;5.10;2.70;;;;;;;22.53;100.00;99946.84;5058391;28;20044;-59
2023/07/25 09:28:37;;;;;;;9.23;3.03;;;;;;;22.36;100.00;99948.88;5069808;28;20469;-58
2023/07/25 09:31:14;;;;;;;6.43;2.93;;;;;;;22.33;100.00;99967.75;5058852;28;20482;-59
2023/07/25 09:33:48;;;;;;;9.63;2.80;;;;;;;22.19;100.00;99970.50;5059980;28;20413;-58
2023/07/25 09:36:22;;;;;;;3.80;2.33;;;;;;;22.11;100.00;99978.16;5070053;28;20055;-58
2023/07/25 09:39:02;;;;;;;6.57;2.20;;;;;;;21.89;100.00;99974.31;5058638;28;20044;-60
2023/07/25 09:41:34;;;;;;;;;;;;;;;21.72;100.00;99990.56;5070630;28;20052;-61
2023/07/25 09:44:13;;;;;;;4.50;2.10;;;;;;;21.58;100.00;99990.63;5060178;28;19928;-59
2023/07/25 09:46:54;;;;;;;8.97;2.80;;;;;;;21.45;100.00;99999.41;5060613;28;20055;-60
2023/07/25 09:49:28;;;;;;;5.50;2.50;;;;;;;21.38;100.00;100005.19;5070252;28;20101;-61
2023/07/25 09:52:04;;;;;;;4.47;2.10;;;;;;;21.23;100.00;100007.03;5059507;28;20203;-60
2023/07/25 09:54:35;;;;;;;6.80;2.90;;;;;;;21.06;100.00;100022.25;5070425;28;20044;-59
2023/07/25 09:57:10;;;;;;;5.10;2.97;;;;;;;20.98;100.00;100029.84;5059663;28;20354;-60
2023/07/25 09:59:41;;;;;;;3.83;2.70;;;;;;;20.83;100.00;100033.47;5070668;28;20047;-60
2023/07/25 10:02:17;;;;;;;7.97;3.53;;;;;;;20.69;100.00;100039.63;5060867;28;20055;-61
2023/07/25 10:04:50;;;;;;;7.80;3.07;;;;;;;20.63;100.00;100046.19;5060575;28;20290;-60
2023/07/25 10:07:23;;;;;;;7.53;3.33;;;;;;;20.52;100.00;100047.75;5071347;28;20627;-61
2023/07/25 10:10:04;;;;;;;8.77;3.17;;;;;;;20.30;100.00;100032.31;5059996;28;20275;-60
2023/07/25 10:12:40;;;;;;;5.07;3.53;;;;;;;20.33;100.00;100048.03;5070626;28;20282;-58
2023/07/25 10:15:13;;;;;;;7.33;3.40;;;;;;;20.24;100.00;100055.59;5060246;28;20282;-59
2023/07/25 10:17:49;;;;;;;8.13;2.90;;;;;;;20.21;100.00;100050.47;5058292;28;20450;-56
2023/07/25 10:20:25;;;;;;;3.80;2.77;;;;;;;20.18;100.00;100045.34;5069729;28;20409;-59
2023/07/25 10:23:13;;;;;;;10.57;3.93;;;;;;;20.00;100.00;100026.09;5060469;28;21156;-61
2023/07/25 10:25:46;;;;;;;4.83;3.13;;;;;;;20.02;100.00;100039.25;5059543;28;20301;-57
2023/07/25 10:28:24;;;;;;;10.57;3.70;;;;;;;19.99;100.00;100039.41;5069682;28;20289;-57
2023/07/25 10:30:56;;;;;;;5.50;3.30;;;;;;;19.90;100.00;100040.84;5058593;28;20281;-58
2023/07/25 10:33:37;;;;;;;11.63;3.10;;;;;;;19.95;100.00;100053.81;5068681;28;20275;-58
2023/07/25 10:36:24;;;;;;;11.37;3.73;;;;;;;19.87;100.00;100051.63;5059198;28;20274;-60
2023/07/25 10:39:09;;;;;;;6.53;3.30;;;;;;;19.73;100.00;100049.75;5058676;28;20285;-60
2023/07/25 10:41:41;;;;;;;12.10;3.40;;;;;;;19.77;100.00;100077.81;5073887;28;20271;-60
2023/07/25 10:44:33;;;;;;;5.03;3.10;;;;;;;19.66;100.00;100058.97;5062515;28;20282;-59
2023/07/25 10:47:25;;;;;;;4.80;2.63;;;;;;;19.67;100.00;100071.34;5063384;28;20316;-59
2023/07/25 10:50:00;;;;;;;3.70;2.73;;;;;;;19.57;100.00;100080.72;5064066;28;20774;-59
2023/07/25 10:52:44;;;;;;;5.13;3.07;;;;;;;19.49;100.00;100082.94;5026149;28;20381;-58
2023/07/25 10:55:16;;;;;;;3.57;2.50;;;;;;;19.45;100.00;100092.00;5063002;28;20285;-60
2023/07/25 10:58:09;;;;;;;3.83;2.60;;;;;;;19.37;100.00;100087.13;5062922;28;20285;-58
2023/07/25 11:00:40;;;;;;;3.50;2.63;;;;;;;19.24;100.00;100094.88;5074186;28;20374;-59
2023/07/25 11:03:32;;;;;;;3.77;2.90;;;;;;;19.11;100.00;100083.25;5063188;28;20285;-61
2023/07/25 11:06:42;;;;;;;10.10;2.87;;;;;;;19.08;100.00;100091.38;5062125;28;20727;-60
2023/07/25 11:09:14;;;;;;;3.90;2.90;;;;;;;19.04;100.00;100089.81;5063546;28;20286;-58
2023/07/25 11:11:50;;;;;;;4.90;2.70;;;;;;;18.99;100.00;100086.56;5062763;28;20280;-60
2023/07/25 11:14:23;;;;;;;4.33;2.97;;;;;;;18.93;100.00;100069.22;5073261;28;20277;-60
2023/07/25 11:16:56;;;;;;;3.53;3.10;;;;;;;18.90;100.00;100080.84;5063215;28;20286;-59
2023/07/25 11:19:30;;;;;;;5.23;2.73;;;;;;;18.71;100.00;100053.59;5073613;28;20290;-59
2023/07/25 11:22:12;;;;;;;4.13;2.53;;;;;;;18.92;100.00;100078.97;5062463;28;20763;-61
2023/07/25 11:24:44;;;;;;;3.97;3.03;;;;;;;18.91;100.00;100074.59;5066164;28;20819;-60
2023/07/25 11:27:17;;;;;;;6.67;3.10;;;;;;;18.89;100.00;100071.16;5072882;28;20270;-60
2023/07/25 11:29:48;;;;;;;9.13;3.17;;;;;;;18.90;100.00;100067.59;5061916;28;20593;-60
2023/07/25 11:32:21;;;;;;;4.20;3.27;;;;;;;18.92;100.00;100071.03;5072417;28;20293;-61
2023/07/25 11:34:52;;;;;;;4.70;3.10;;;;;;;18.94;100.00;100070.94;5061890;28;20662;-58
2023/07/25 11:37:28;;;;;;;3.63;2.87;;;;;;;18.96;100.00;100077.84;5072938;28;20828;-60
2023/07/25 11:40:21;;;;;;;4.63;3.13;;;;;;;18.92;100.00;100073.69;5062405;28;20281;-61
2023/07/25 11:42:53;;;;;;;6.40;3.20;;;;;;;19.01;100.00;100067.00;5062172;28;20680;-58
2023/07/25 11:45:25;;;;;;;8.13;3.37;;;;;;;18.98;100.00;100071.63;5071931;28;20301;-59